SAS84G EDDF-EKCH
Flight info
| Callsign | SAS84G |
|---|---|
| Flight time | 1h 5m |
| Altitude | 37000 |
| Route | MARUN3W/25C MARUN Y150 TOLGI DCT SAS DCT MAKEL N851 GESKA Z711 MONAK |
| Aircraft | A20N/M-SDE2E3FGHIRWXY/LB1 |
Departure
| Time | 2026-05-03 22:26 |
|---|---|
| Airport | Frankfurt Main Airport (EDDF) |
Arrival
| Time | 2026-05-03 23:32 |
|---|---|
| Airport | Copenhagen Kastrup Airport (EKCH) |
| Time | Latitude | Longitude | Altitude | Speed | Heading |
|---|---|---|---|---|---|
| 2026-05-03 21:54 | 50.04763 | 8.57731 | 345 ft | 0 kts | 270° |
| 2026-05-03 22:13 | 50.04763 | 8.57748 | 354 ft | 3 kts | 270° |
| 2026-05-03 22:13 | 50.04762 | 8.57775 | 349 ft | 3 kts | 270° |
| 2026-05-03 22:13 | 50.04763 | 8.57802 | 352 ft | 2 kts | 277° |
| 2026-05-03 22:14 | 50.04762 | 8.57829 | 356 ft | 2 kts | 229° |
| 2026-05-03 22:14 | 50.04775 | 8.57845 | 355 ft | 3 kts | 210° |
| 2026-05-03 22:14 | 50.04790 | 8.57858 | 352 ft | 3 kts | 210° |
| 2026-05-03 22:14 | 50.04805 | 8.57872 | 352 ft | 3 kts | 210° |
| 2026-05-03 22:15 | 50.04817 | 8.57891 | 355 ft | 2 kts | 275° |
| 2026-05-03 22:15 | 50.04816 | 8.57906 | 347 ft | 3 kts | 282° |
| 2026-05-03 22:15 | 50.04812 | 8.57933 | 352 ft | 3 kts | 282° |
| 2026-05-03 22:15 | 50.04808 | 8.57959 | 348 ft | 3 kts | 282° |
| 2026-05-03 22:16 | 50.04805 | 8.57985 | 350 ft | 3 kts | 282° |
| 2026-05-03 22:16 | 50.04801 | 8.58012 | 355 ft | 2 kts | 268° |
| 2026-05-03 22:16 | 50.04802 | 8.58021 | 355 ft | 0 kts | 261° |
| 2026-05-03 22:20 | 50.04801 | 8.58018 | 345 ft | 1 kts | 261° |
| 2026-05-03 22:21 | 50.04795 | 8.57999 | 353 ft | 3 kts | 238° |
| 2026-05-03 22:21 | 50.04776 | 8.57975 | 351 ft | 4 kts | 210° |
| 2026-05-03 22:21 | 50.04740 | 8.57955 | 352 ft | 6 kts | 189° |
| 2026-05-03 22:21 | 50.04691 | 8.57969 | 347 ft | 8 kts | 157° |
| 2026-05-03 22:22 | 50.04631 | 8.58004 | 346 ft | 10 kts | 159° |
| 2026-05-03 22:22 | 50.04558 | 8.58046 | 347 ft | 12 kts | 161° |
| 2026-05-03 22:22 | 50.04483 | 8.58090 | 350 ft | 0 kts | 158° |
| 2026-05-03 22:23 | 50.04482 | 8.58090 | 345 ft | 1 kts | 158° |
| 2026-05-03 22:23 | 50.04468 | 8.58099 | 353 ft | 3 kts | 158° |
| 2026-05-03 22:23 | 50.04441 | 8.58112 | 353 ft | 5 kts | 169° |
| 2026-05-03 22:24 | 50.04400 | 8.58106 | 345 ft | 7 kts | 200° |
| 2026-05-03 22:24 | 50.04364 | 8.58060 | 350 ft | 0 kts | 245° |
| 2026-05-03 22:24 | 50.04364 | 8.58058 | 350 ft | 1 kts | 246° |
| 2026-05-03 22:25 | 50.04358 | 8.58042 | 345 ft | 3 kts | 244° |
| 2026-05-03 22:25 | 50.04335 | 8.57945 | 352 ft | 28 kts | 250° |
| 2026-05-03 22:25 | 50.04183 | 8.57314 | 349 ft | 94 kts | 250° |
| 2026-05-03 22:25 | 50.03894 | 8.56105 | 354 ft | 142 kts | 250° |
| 2026-05-03 22:26 | 50.03490 | 8.54487 | 469 ft | 170 kts | 248° |
| 2026-05-03 22:26 | 50.03053 | 8.52807 | 1131 ft | 167 kts | 248° |
| 2026-05-03 22:26 | 50.02650 | 8.51114 | 1730 ft | 169 kts | 246° |
| 2026-05-03 22:26 | 50.01981 | 8.49494 | 2010 ft | 189 kts | 225° |
| 2026-05-03 22:27 | 50.00864 | 8.48322 | 2499 ft | 199 kts | 203° |
| 2026-05-03 22:27 | 49.99515 | 8.47867 | 3206 ft | 202 kts | 192° |
| 2026-05-03 22:27 | 49.98117 | 8.47558 | 3923 ft | 203 kts | 192° |
| 2026-05-03 22:27 | 49.96711 | 8.47248 | 4632 ft | 205 kts | 192° |
| 2026-05-03 22:28 | 49.95314 | 8.46744 | 5174 ft | 214 kts | 200° |
| 2026-05-03 22:28 | 49.93820 | 8.46049 | 5618 ft | 230 kts | 200° |
| 2026-05-03 22:28 | 49.92321 | 8.45169 | 6408 ft | 230 kts | 214° |
| 2026-05-03 22:28 | 49.91155 | 8.43469 | 6854 ft | 231 kts | 237° |
| 2026-05-03 22:29 | 49.90622 | 8.41131 | 6980 ft | 234 kts | 262° |
| 2026-05-03 22:29 | 49.90843 | 8.38603 | 7009 ft | 243 kts | 287° |
| 2026-05-03 22:29 | 49.91829 | 8.36427 | 7012 ft | 256 kts | 315° |
| 2026-05-03 22:29 | 49.93463 | 8.35084 | 7460 ft | 274 kts | 332° |
| 2026-05-03 22:30 | 49.95276 | 8.33912 | 7962 ft | 289 kts | 332° |
| 2026-05-03 22:30 | 49.97124 | 8.32703 | 8681 ft | 294 kts | 332° |
| 2026-05-03 22:30 | 49.99022 | 8.31460 | 9454 ft | 298 kts | 332° |
| 2026-05-03 22:30 | 50.00945 | 8.30201 | 10190 ft | 301 kts | 332° |
| 2026-05-03 22:31 | 50.02973 | 8.29120 | 10634 ft | 321 kts | 343° |
| 2026-05-03 22:31 | 50.05287 | 8.28728 | 10820 ft | 348 kts | 358° |
| 2026-05-03 22:31 | 50.07728 | 8.29283 | 11321 ft | 360 kts | 14° |
| 2026-05-03 22:31 | 50.10116 | 8.30550 | 11995 ft | 364 kts | 17° |
| 2026-05-03 22:32 | 50.12516 | 8.31832 | 12712 ft | 365 kts | 17° |
| 2026-05-03 22:32 | 50.14937 | 8.33099 | 13411 ft | 368 kts | 17° |
| 2026-05-03 22:32 | 50.17371 | 8.34363 | 14072 ft | 370 kts | 17° |
| 2026-05-03 22:32 | 50.19825 | 8.35638 | 14655 ft | 373 kts | 17° |
| 2026-05-03 22:33 | 50.22304 | 8.36929 | 15212 ft | 377 kts | 17° |
| 2026-05-03 22:33 | 50.24811 | 8.38239 | 15754 ft | 381 kts | 17° |
| 2026-05-03 22:33 | 50.27336 | 8.39565 | 16291 ft | 385 kts | 17° |
| 2026-05-03 22:33 | 50.29892 | 8.40914 | 16830 ft | 389 kts | 17° |
| 2026-05-03 22:34 | 50.32466 | 8.42297 | 17359 ft | 393 kts | 17° |
| 2026-05-03 22:34 | 50.35068 | 8.43719 | 17913 ft | 398 kts | 17° |
| 2026-05-03 22:34 | 50.37687 | 8.45162 | 18405 ft | 402 kts | 17° |
| 2026-05-03 22:34 | 50.40346 | 8.46628 | 18887 ft | 406 kts | 17° |
| 2026-05-03 22:35 | 50.42990 | 8.48084 | 19375 ft | 410 kts | 17° |
| 2026-05-03 22:35 | 50.45699 | 8.49571 | 19863 ft | 414 kts | 17° |
| 2026-05-03 22:35 | 50.48429 | 8.51052 | 20369 ft | 417 kts | 16° |
| 2026-05-03 22:35 | 50.51206 | 8.52457 | 20842 ft | 421 kts | 15° |
| 2026-05-03 22:36 | 50.54023 | 8.53794 | 21319 ft | 424 kts | 14° |
| 2026-05-03 22:36 | 50.56870 | 8.55104 | 21786 ft | 428 kts | 13° |
| 2026-05-03 22:36 | 50.59741 | 8.56423 | 22269 ft | 431 kts | 14° |
| 2026-05-03 22:36 | 50.62630 | 8.57770 | 22745 ft | 435 kts | 14° |
| 2026-05-03 22:37 | 50.65540 | 8.59153 | 23215 ft | 438 kts | 14° |
| 2026-05-03 22:37 | 50.68469 | 8.60562 | 23647 ft | 442 kts | 14° |
| 2026-05-03 22:37 | 50.71428 | 8.61996 | 24027 ft | 445 kts | 14° |
| 2026-05-03 22:37 | 50.74399 | 8.63445 | 24411 ft | 448 kts | 14° |
| 2026-05-03 22:38 | 50.77375 | 8.64967 | 24786 ft | 452 kts | 19° |
| 2026-05-03 22:38 | 50.80223 | 8.67121 | 25154 ft | 456 kts | 30° |
| 2026-05-03 22:38 | 50.82803 | 8.69963 | 25505 ft | 460 kts | 40° |
| 2026-05-03 22:38 | 50.85103 | 8.73508 | 25868 ft | 462 kts | 50° |
| 2026-05-03 22:39 | 50.87081 | 8.77518 | 26225 ft | 463 kts | 54° |
| 2026-05-03 22:39 | 50.89033 | 8.81593 | 26579 ft | 466 kts | 54° |
| 2026-05-03 22:39 | 50.90996 | 8.85688 | 26922 ft | 468 kts | 54° |
| 2026-05-03 22:39 | 50.92967 | 8.89805 | 27265 ft | 470 kts | 54° |
| 2026-05-03 22:40 | 50.94949 | 8.93951 | 27608 ft | 472 kts | 54° |
| 2026-05-03 22:40 | 50.96939 | 8.98115 | 27953 ft | 475 kts | 54° |
| 2026-05-03 22:40 | 50.98935 | 9.02303 | 28308 ft | 477 kts | 54° |
| 2026-05-03 22:40 | 51.00939 | 9.06527 | 28624 ft | 480 kts | 54° |
| 2026-05-03 22:41 | 51.02948 | 9.10785 | 28944 ft | 483 kts | 54° |
| 2026-05-03 22:41 | 51.04961 | 9.15066 | 29245 ft | 485 kts | 54° |
| 2026-05-03 22:41 | 51.07013 | 9.19348 | 29533 ft | 488 kts | 51° |
| 2026-05-03 22:41 | 51.09353 | 9.23154 | 29905 ft | 489 kts | 41° |
| 2026-05-03 22:42 | 51.12121 | 9.26424 | 30324 ft | 488 kts | 31° |
| 2026-05-03 22:42 | 51.15122 | 9.28924 | 30713 ft | 486 kts | 21° |
| 2026-05-03 22:42 | 51.18266 | 9.30614 | 31097 ft | 482 kts | 11° |
| 2026-05-03 22:42 | 51.21542 | 9.31755 | 31508 ft | 480 kts | 9° |
| 2026-05-03 22:43 | 51.24812 | 9.32877 | 31878 ft | 481 kts | 9° |
| 2026-05-03 22:43 | 51.28082 | 9.34010 | 32275 ft | 480 kts | 10° |
| 2026-05-03 22:43 | 51.31346 | 9.35147 | 32686 ft | 479 kts | 10° |
| 2026-05-03 22:43 | 51.34596 | 9.36284 | 33089 ft | 478 kts | 10° |
| 2026-05-03 22:44 | 51.37850 | 9.37425 | 33499 ft | 477 kts | 10° |
| 2026-05-03 22:44 | 51.41092 | 9.38561 | 33876 ft | 476 kts | 10° |
| 2026-05-03 22:44 | 51.44333 | 9.39694 | 34230 ft | 475 kts | 10° |
| 2026-05-03 22:44 | 51.47558 | 9.40821 | 34575 ft | 474 kts | 10° |
| 2026-05-03 22:45 | 51.50777 | 9.41946 | 34925 ft | 472 kts | 10° |
| 2026-05-03 22:45 | 51.53982 | 9.43069 | 35271 ft | 470 kts | 10° |
| 2026-05-03 22:45 | 51.57173 | 9.44190 | 35609 ft | 468 kts | 10° |
| 2026-05-03 22:45 | 51.60345 | 9.45306 | 35933 ft | 467 kts | 10° |
| 2026-05-03 22:46 | 51.63478 | 9.46412 | 36246 ft | 465 kts | 10° |
| 2026-05-03 22:46 | 51.66631 | 9.47525 | 36574 ft | 464 kts | 10° |
| 2026-05-03 22:46 | 51.69784 | 9.48638 | 36839 ft | 463 kts | 10° |
| 2026-05-03 22:46 | 51.72941 | 9.49753 | 36962 ft | 465 kts | 10° |
| 2026-05-03 22:47 | 51.76116 | 9.50876 | 36980 ft | 469 kts | 10° |
| 2026-05-03 22:47 | 51.81421 | 9.52828 | 36972 ft | 472 kts | 14° |
| 2026-05-03 22:47 | 51.85520 | 9.55411 | 36970 ft | 474 kts | 26° |
| 2026-05-03 22:48 | 51.87471 | 9.57026 | 36975 ft | 475 kts | 26° |
| 2026-05-03 22:48 | 51.93351 | 9.61897 | 36967 ft | 475 kts | 26° |
| 2026-05-03 22:49 | 51.99241 | 9.66793 | 36965 ft | 475 kts | 26° |
| 2026-05-03 22:49 | 52.05129 | 9.71697 | 36970 ft | 476 kts | 26° |
| 2026-05-03 22:50 | 52.11024 | 9.76611 | 36968 ft | 476 kts | 26° |
| 2026-05-03 22:50 | 52.16908 | 9.81541 | 36973 ft | 476 kts | 26° |
| 2026-05-03 22:51 | 52.22805 | 9.86498 | 36968 ft | 476 kts | 26° |
| 2026-05-03 22:51 | 52.28706 | 9.91446 | 36962 ft | 476 kts | 25° |
| 2026-05-03 22:52 | 52.34586 | 9.96294 | 36965 ft | 475 kts | 25° |
| 2026-05-03 22:52 | 52.40492 | 10.01148 | 36968 ft | 475 kts | 25° |
| 2026-05-03 22:53 | 52.46394 | 10.06025 | 36965 ft | 475 kts | 25° |
| 2026-05-03 22:53 | 52.52287 | 10.10921 | 36964 ft | 475 kts | 25° |
| 2026-05-03 22:54 | 52.58179 | 10.15842 | 36980 ft | 474 kts | 25° |
| 2026-05-03 22:54 | 52.64065 | 10.20781 | 36970 ft | 474 kts | 26° |
| 2026-05-03 22:55 | 52.69942 | 10.25735 | 36965 ft | 474 kts | 26° |
| 2026-05-03 22:55 | 52.75824 | 10.30690 | 36943 ft | 474 kts | 26° |
| 2026-05-03 22:56 | 52.81663 | 10.35611 | 36961 ft | 474 kts | 26° |
| 2026-05-03 22:56 | 52.87539 | 10.40588 | 36955 ft | 474 kts | 26° |
| 2026-05-03 22:57 | 52.93404 | 10.45580 | 36949 ft | 474 kts | 26° |
| 2026-05-03 22:57 | 52.99274 | 10.50590 | 36944 ft | 474 kts | 26° |
| 2026-05-03 22:58 | 53.05146 | 10.55617 | 36944 ft | 474 kts | 26° |
| 2026-05-03 22:58 | 53.11011 | 10.60650 | 36938 ft | 474 kts | 26° |
| 2026-05-03 22:59 | 53.16895 | 10.65714 | 36937 ft | 474 kts | 26° |
| 2026-05-03 22:59 | 53.22749 | 10.70773 | 36934 ft | 474 kts | 26° |
| 2026-05-03 23:00 | 53.28613 | 10.75852 | 36944 ft | 475 kts | 26° |
| 2026-05-03 23:00 | 53.34441 | 10.80911 | 36925 ft | 475 kts | 26° |
| 2026-05-03 23:01 | 53.40309 | 10.86039 | 36919 ft | 476 kts | 26° |
| 2026-05-03 23:01 | 53.46176 | 10.91165 | 36908 ft | 475 kts | 26° |
| 2026-05-03 23:02 | 53.52053 | 10.96309 | 36927 ft | 475 kts | 26° |
| 2026-05-03 23:02 | 53.57871 | 11.01426 | 36917 ft | 475 kts | 26° |
| 2026-05-03 23:03 | 53.63728 | 11.06593 | 36913 ft | 475 kts | 26° |
| 2026-05-03 23:03 | 53.69584 | 11.11773 | 36909 ft | 475 kts | 26° |
| 2026-05-03 23:04 | 53.75427 | 11.16973 | 36923 ft | 475 kts | 26° |
| 2026-05-03 23:04 | 53.81277 | 11.22181 | 36903 ft | 474 kts | 26° |
| 2026-05-03 23:05 | 53.87116 | 11.27400 | 36913 ft | 474 kts | 26° |
| 2026-05-03 23:05 | 53.92903 | 11.32605 | 36906 ft | 473 kts | 26° |
| 2026-05-03 23:06 | 53.98709 | 11.37824 | 36911 ft | 472 kts | 26° |
| 2026-05-03 23:06 | 54.04512 | 11.43064 | 36896 ft | 471 kts | 26° |
| 2026-05-03 23:07 | 54.10302 | 11.48313 | 36596 ft | 473 kts | 26° |
| 2026-05-03 23:07 | 54.13251 | 11.50987 | 35390 ft | 488 kts | 26° |
| 2026-05-03 23:07 | 54.16226 | 11.53693 | 35085 ft | 481 kts | 27° |
| 2026-05-03 23:07 | 54.19169 | 11.56373 | 34760 ft | 476 kts | 27° |
| 2026-05-03 23:08 | 54.22079 | 11.59019 | 34235 ft | 473 kts | 27° |
| 2026-05-03 23:08 | 54.24971 | 11.61658 | 33604 ft | 470 kts | 27° |
| 2026-05-03 23:08 | 54.27851 | 11.64294 | 32933 ft | 471 kts | 27° |
| 2026-05-03 23:08 | 54.30746 | 11.66945 | 32328 ft | 470 kts | 27° |
| 2026-05-03 23:09 | 54.33631 | 11.69593 | 31780 ft | 469 kts | 27° |
| 2026-05-03 23:09 | 54.36500 | 11.72228 | 31244 ft | 467 kts | 27° |
| 2026-05-03 23:09 | 54.39323 | 11.74825 | 30720 ft | 466 kts | 27° |
| 2026-05-03 23:09 | 54.42172 | 11.77450 | 30201 ft | 464 kts | 27° |
| 2026-05-03 23:10 | 54.45017 | 11.80077 | 29673 ft | 463 kts | 26° |
| 2026-05-03 23:10 | 54.47882 | 11.82569 | 29076 ft | 461 kts | 24° |
| 2026-05-03 23:10 | 54.50783 | 11.84900 | 28496 ft | 458 kts | 22° |
| 2026-05-03 23:10 | 54.53697 | 11.87122 | 27920 ft | 457 kts | 21° |
| 2026-05-03 23:11 | 54.56598 | 11.89297 | 27374 ft | 455 kts | 21° |
| 2026-05-03 23:11 | 54.59492 | 11.91484 | 26786 ft | 453 kts | 21° |
| 2026-05-03 23:11 | 54.62321 | 11.93882 | 26246 ft | 452 kts | 30° |
| 2026-05-03 23:11 | 54.64942 | 11.96869 | 25718 ft | 451 kts | 32° |
| 2026-05-03 23:12 | 54.67537 | 11.99878 | 25240 ft | 448 kts | 32° |
| 2026-05-03 23:12 | 54.70122 | 12.02884 | 24747 ft | 446 kts | 32° |
| 2026-05-03 23:12 | 54.72695 | 12.05872 | 24274 ft | 444 kts | 32° |
| 2026-05-03 23:12 | 54.75223 | 12.08804 | 23811 ft | 443 kts | 32° |
| 2026-05-03 23:13 | 54.77775 | 12.11768 | 23329 ft | 441 kts | 32° |
| 2026-05-03 23:13 | 54.80320 | 12.14728 | 22784 ft | 440 kts | 32° |
| 2026-05-03 23:13 | 54.82857 | 12.17677 | 22249 ft | 439 kts | 32° |
| 2026-05-03 23:13 | 54.85385 | 12.20620 | 21720 ft | 437 kts | 32° |
| 2026-05-03 23:14 | 54.87909 | 12.23565 | 21200 ft | 436 kts | 32° |
| 2026-05-03 23:14 | 54.90421 | 12.26508 | 20697 ft | 435 kts | 32° |
| 2026-05-03 23:14 | 54.92927 | 12.29446 | 20204 ft | 433 kts | 32° |
| 2026-05-03 23:14 | 54.95428 | 12.32378 | 19692 ft | 432 kts | 32° |
| 2026-05-03 23:15 | 54.97888 | 12.35267 | 19180 ft | 424 kts | 32° |
| 2026-05-03 23:15 | 55.00328 | 12.38131 | 18682 ft | 422 kts | 32° |
| 2026-05-03 23:15 | 55.02758 | 12.40979 | 18183 ft | 418 kts | 32° |
| 2026-05-03 23:15 | 55.05154 | 12.43775 | 17631 ft | 410 kts | 32° |
| 2026-05-03 23:16 | 55.07493 | 12.46502 | 17072 ft | 401 kts | 32° |
| 2026-05-03 23:16 | 55.09795 | 12.49192 | 16531 ft | 395 kts | 32° |
| 2026-05-03 23:16 | 55.12064 | 12.51843 | 15990 ft | 389 kts | 32° |
| 2026-05-03 23:16 | 55.14298 | 12.54461 | 15478 ft | 384 kts | 32° |
| 2026-05-03 23:17 | 55.16483 | 12.57030 | 14946 ft | 374 kts | 32° |
| 2026-05-03 23:17 | 55.18618 | 12.59546 | 14444 ft | 364 kts | 32° |
| 2026-05-03 23:17 | 55.20667 | 12.61965 | 13948 ft | 356 kts | 32° |
| 2026-05-03 23:17 | 55.22713 | 12.64324 | 13427 ft | 347 kts | 27° |
| 2026-05-03 23:18 | 55.24903 | 12.65935 | 12860 ft | 337 kts | 14° |
| 2026-05-03 23:18 | 55.27135 | 12.67193 | 12302 ft | 335 kts | 14° |
| 2026-05-03 23:18 | 55.29351 | 12.68443 | 11585 ft | 335 kts | 14° |
| 2026-05-03 23:18 | 55.31573 | 12.69704 | 10885 ft | 335 kts | 15° |
| 2026-05-03 23:19 | 55.33787 | 12.70969 | 10208 ft | 335 kts | 15° |
| 2026-05-03 23:19 | 55.35992 | 12.72236 | 9592 ft | 332 kts | 15° |
| 2026-05-03 23:19 | 55.38175 | 12.73488 | 8953 ft | 328 kts | 15° |
| 2026-05-03 23:19 | 55.40333 | 12.74723 | 8378 ft | 323 kts | 15° |
| 2026-05-03 23:20 | 55.42428 | 12.75922 | 7910 ft | 316 kts | 15° |
| 2026-05-03 23:20 | 55.44527 | 12.77125 | 7786 ft | 314 kts | 14° |
| 2026-05-03 23:20 | 55.46580 | 12.78299 | 7667 ft | 315 kts | 15° |
| 2026-05-03 23:20 | 55.48667 | 12.79495 | 7431 ft | 314 kts | 15° |
| 2026-05-03 23:21 | 55.50738 | 12.80685 | 7169 ft | 309 kts | 15° |
| 2026-05-03 23:21 | 55.52716 | 12.81832 | 6979 ft | 292 kts | 15° |
| 2026-05-03 23:21 | 55.54626 | 12.82943 | 6667 ft | 287 kts | 15° |
| 2026-05-03 23:21 | 55.56519 | 12.84080 | 6399 ft | 286 kts | 17° |
| 2026-05-03 23:22 | 55.60191 | 12.86663 | 5884 ft | 281 kts | 19° |
| 2026-05-03 23:22 | 55.61976 | 12.88021 | 5639 ft | 278 kts | 25° |
| 2026-05-03 23:22 | 55.63583 | 12.89889 | 5390 ft | 276 kts | 40° |
| 2026-05-03 23:23 | 55.64987 | 12.92124 | 5141 ft | 273 kts | 41° |
| 2026-05-03 23:23 | 55.66397 | 12.94348 | 4902 ft | 270 kts | 41° |
| 2026-05-03 23:23 | 55.67796 | 12.96532 | 4683 ft | 264 kts | 40° |
| 2026-05-03 23:23 | 55.69142 | 12.98629 | 4557 ft | 250 kts | 40° |
| 2026-05-03 23:24 | 55.70529 | 13.00302 | 4471 ft | 235 kts | 15° |
| 2026-05-03 23:24 | 55.72047 | 13.00729 | 4391 ft | 211 kts | 347° |
| 2026-05-03 23:24 | 55.73397 | 13.00056 | 4092 ft | 198 kts | 323° |
| 2026-05-03 23:24 | 55.74431 | 12.98553 | 3741 ft | 187 kts | 303° |
| 2026-05-03 23:25 | 55.75266 | 12.96854 | 3533 ft | 176 kts | 304° |
| 2026-05-03 23:25 | 55.76049 | 12.95293 | 3490 ft | 164 kts | 304° |
| 2026-05-03 23:25 | 55.76691 | 12.93745 | 3423 ft | 149 kts | 287° |
| 2026-05-03 23:25 | 55.76973 | 12.92030 | 3357 ft | 142 kts | 268° |
| 2026-05-03 23:26 | 55.76909 | 12.90317 | 3277 ft | 138 kts | 250° |
| 2026-05-03 23:26 | 55.76529 | 12.88777 | 3162 ft | 136 kts | 231° |
| 2026-05-03 23:26 | 55.75885 | 12.87550 | 3101 ft | 137 kts | 219° |
| 2026-05-03 23:26 | 55.75171 | 12.86435 | 3064 ft | 139 kts | 219° |
| 2026-05-03 23:27 | 55.74442 | 12.85294 | 3043 ft | 140 kts | 219° |
| 2026-05-03 23:27 | 55.73715 | 12.84158 | 2952 ft | 140 kts | 219° |
| 2026-05-03 23:27 | 55.72991 | 12.83026 | 2773 ft | 139 kts | 219° |
| 2026-05-03 23:27 | 55.72268 | 12.81898 | 2591 ft | 138 kts | 219° |
| 2026-05-03 23:28 | 55.71547 | 12.80773 | 2416 ft | 138 kts | 218° |
| 2026-05-03 23:28 | 55.70829 | 12.79653 | 2229 ft | 137 kts | 218° |
| 2026-05-03 23:28 | 55.70116 | 12.78539 | 2047 ft | 136 kts | 218° |
| 2026-05-03 23:28 | 55.69403 | 12.77429 | 1864 ft | 136 kts | 218° |
| 2026-05-03 23:29 | 55.68694 | 12.76325 | 1683 ft | 136 kts | 218° |
| 2026-05-03 23:29 | 55.67984 | 12.75220 | 1499 ft | 135 kts | 218° |
| 2026-05-03 23:29 | 55.67275 | 12.74116 | 1313 ft | 136 kts | 218° |
| 2026-05-03 23:29 | 55.66563 | 12.73009 | 1127 ft | 136 kts | 219° |
| 2026-05-03 23:30 | 55.65848 | 12.71897 | 933 ft | 137 kts | 219° |
| 2026-05-03 23:30 | 55.65131 | 12.70782 | 737 ft | 139 kts | 221° |
| 2026-05-03 23:30 | 55.64396 | 12.69641 | 547 ft | 141 kts | 223° |
| 2026-05-03 23:30 | 55.64014 | 12.69047 | 430 ft | 142 kts | 224° |
| 2026-05-03 23:31 | 55.63115 | 12.67651 | 215 ft | 145 kts | 224° |
| 2026-05-03 23:31 | 55.62584 | 12.66832 | 83 ft | 145 kts | 223° |
| 2026-05-03 23:31 | 55.61863 | 12.65709 | 23 ft | 118 kts | 221° |
| 2026-05-03 23:31 | 55.61377 | 12.64940 | 23 ft | 69 kts | 221° |
| 2026-05-03 23:32 | 55.61141 | 12.64569 | 20 ft | 28 kts | 220° |
| 2026-05-03 23:32 | 55.60986 | 12.64342 | 21 ft | 29 kts | 219° |
| 2026-05-03 23:32 | 55.60833 | 12.64115 | 26 ft | 28 kts | 221° |
| 2026-05-03 23:32 | 55.60740 | 12.63956 | 28 ft | 29 kts | 228° |
| 2026-05-03 23:33 | 55.60766 | 12.63668 | 24 ft | 27 kts | 326° |
| 2026-05-03 23:33 | 55.60929 | 12.63709 | 21 ft | 24 kts | 39° |
| 2026-05-03 23:33 | 55.61067 | 12.63872 | 20 ft | 25 kts | 37° |
| 2026-05-03 23:33 | 55.61266 | 12.64094 | 16 ft | 26 kts | 37° |
| 2026-05-03 23:34 | 55.61277 | 12.64108 | 16 ft | 26 kts | 37° |
| 2026-05-03 23:34 | 55.61369 | 12.64219 | 18 ft | 26 kts | 33° |
| 2026-05-03 23:34 | 55.61518 | 12.64397 | 20 ft | 26 kts | 35° |
| 2026-05-03 23:34 | 55.61670 | 12.64560 | 19 ft | 25 kts | 33° |
| 2026-05-03 23:35 | 55.61816 | 12.64731 | 19 ft | 26 kts | 33° |
| 2026-05-03 23:35 | 55.61973 | 12.64910 | 19 ft | 27 kts | 32° |
| 2026-05-03 23:35 | 55.62124 | 12.65086 | 24 ft | 26 kts | 31° |
| 2026-05-03 23:35 | 55.62292 | 12.65194 | 24 ft | 27 kts | 360° |
| 2026-05-03 23:36 | 55.62485 | 12.65186 | 20 ft | 29 kts | 357° |
| 2026-05-03 23:36 | 55.62618 | 12.65197 | 19 ft | 10 kts | 29° |
| 2026-05-03 23:36 | 55.62678 | 12.65296 | 18 ft | 13 kts | 31° |
| 2026-05-03 23:36 | 55.62729 | 12.65340 | 20 ft | 14 kts | 26° |
| 2026-05-03 23:37 | 55.62734 | 12.65344 | 19 ft | 0 kts | 26° |